sensor_id;sensor_type;location;lat;lon;timestamp;pressure;altitude;pressure_sealevel;temperature;humidity
35908;BME280;22003;50.320;8.054;2023-05-21T04:01:36;99543.53;;;12.69;100.00
35908;BME280;22003;50.320;8.054;2023-05-21T04:04:03;99535.59;;;12.79;100.00
35908;BME280;22003;50.320;8.054;2023-05-21T04:06:28;99487.00;;;12.48;100.00
35908;BME280;22003;50.320;8.054;2023-05-21T04:08:54;99487.00;;;12.48;100.00
35908;BME280;22003;50.320;8.054;2023-05-21T04:11:19;99533.34;;;12.84;100.00
35908;BME280;22003;50.320;8.054;2023-05-21T04:13:44;99546.38;;;13.16;100.00
35908;BME280;22003;50.320;8.054;2023-05-21T04:16:10;99524.97;;;12.88;100.00
35908;BME280;22003;50.320;8.054;2023-05-21T04:18:38;99554.34;;;12.97;100.00
35908;BME280;22003;50.320;8.054;2023-05-21T04:21:03;99548.63;;;13.01;100.00
35908;BME280;22003;50.320;8.054;2023-05-21T04:23:29;99550.84;;;12.96;100.00
35908;BME280;22003;50.320;8.054;2023-05-21T04:25:54;99558.13;;;12.94;100.00
35908;BME280;22003;50.320;8.054;2023-05-21T04:28:19;99537.25;;;13.18;100.00
35908;BME280;22003;50.320;8.054;2023-05-21T04:30:48;99547.06;;;13.08;100.00
35908;BME280;22003;50.320;8.054;2023-05-21T04:33:13;99551.56;;;13.17;100.00
35908;BME280;22003;50.320;8.054;2023-05-21T04:35:42;99548.31;;;13.43;100.00
35908;BME280;22003;50.320;8.054;2023-05-21T04:38:08;99542.72;;;13.27;100.00
35908;BME280;22003;50.320;8.054;2023-05-21T04:40:34;99552.84;;;13.33;100.00
35908;BME280;22003;50.320;8.054;2023-05-21T04:42:59;99555.88;;;13.38;100.00
35908;BME280;22003;50.320;8.054;2023-05-21T04:45:25;99569.03;;;13.20;100.00
35908;BME280;22003;50.320;8.054;2023-05-21T04:47:51;99560.25;;;13.39;100.00
35908;BME280;22003;50.320;8.054;2023-05-21T04:50:16;99554.09;;;13.29;100.00
35908;BME280;22003;50.320;8.054;2023-05-21T04:52:42;99571.00;;;13.37;100.00
35908;BME280;22003;50.320;8.054;2023-05-21T04:55:09;99568.09;;;13.40;100.00
35908;BME280;22003;50.320;8.054;2023-05-21T04:57:35;99563.06;;;13.28;100.00
35908;BME280;22003;50.320;8.054;2023-05-21T05:00:00;99557.28;;;13.32;100.00
35908;BME280;22003;50.320;8.054;2023-05-21T05:02:26;99563.75;;;13.39;100.00
35908;BME280;22003;50.320;8.054;2023-05-21T05:04:51;99572.09;;;13.54;100.00
35908;BME280;22003;50.320;8.054;2023-05-21T05:07:16;99543.03;;;13.33;100.00
35908;BME280;22003;50.320;8.054;2023-05-21T05:09:42;99563.72;;;13.49;100.00
35908;BME280;22003;50.320;8.054;2023-05-21T05:12:07;99552.84;;;13.33;100.00
35908;BME280;22003;50.320;8.054;2023-05-21T05:14:32;99565.53;;;13.58;100.00
35908;BME280;22003;50.320;8.054;2023-05-21T05:16:58;99561.59;;;13.62;100.00
35908;BME280;22003;50.320;8.054;2023-05-21T05:19:25;99553.44;;;13.73;100.00
35908;BME280;22003;50.320;8.054;2023-05-21T05:21:50;99557.94;;;13.73;100.00
35908;BME280;22003;50.320;8.054;2023-05-21T05:24:16;99556.09;;;13.83;100.00
35908;BME280;22003;50.320;8.054;2023-05-21T05:26:41;99563.91;;;13.85;100.00
35908;BME280;22003;50.320;8.054;2023-05-21T05:29:06;99559.84;;;13.90;100.00
35908;BME280;22003;50.320;8.054;2023-05-21T05:31:31;99559.28;;;13.87;100.00
35908;BME280;22003;50.320;8.054;2023-05-21T05:33:57;99565.41;;;13.97;100.00
35908;BME280;22003;50.320;8.054;2023-05-21T05:36:22;99551.41;;;13.95;100.00
35908;BME280;22003;50.320;8.054;2023-05-21T05:38:48;99568.59;;;14.10;100.00
35908;BME280;22003;50.320;8.054;2023-05-21T05:41:13;99553.47;;;14.11;100.00
35908;BME280;22003;50.320;8.054;2023-05-21T05:43:38;99560.22;;;14.05;100.00
35908;BME280;22003;50.320;8.054;2023-05-21T05:46:04;99555.38;;;14.18;100.00
35908;BME280;22003;50.320;8.054;2023-05-21T05:48:29;99526.84;;;14.01;100.00
35908;BME280;22003;50.320;8.054;2023-05-21T05:50:55;99559.53;;;14.31;100.00
35908;BME280;22003;50.320;8.054;2023-05-21T05:53:21;99550.41;;;14.33;100.00
35908;BME280;22003;50.320;8.054;2023-05-21T05:55:46;99562.97;;;14.41;100.00
35908;BME280;22003;50.320;8.054;2023-05-21T05:58:11;99564.78;;;14.50;98.89
35908;BME280;22003;50.320;8.054;2023-05-21T06:00:37;99563.88;;;14.59;100.00
35908;BME280;22003;50.320;8.054;2023-05-21T06:03:02;99559.38;;;14.60;100.00
35908;BME280;22003;50.320;8.054;2023-05-21T06:05:27;99560.50;;;14.67;100.00
35908;BME280;22003;50.320;8.054;2023-05-21T06:07:53;99564.66;;;14.69;98.53
35908;BME280;22003;50.320;8.054;2023-05-21T06:10:18;99568.81;;;14.99;98.68
35908;BME280;22003;50.320;8.054;2023-05-21T06:12:44;99547.22;;;14.93;94.72
35908;BME280;22003;50.320;8.054;2023-05-21T06:15:10;99566.28;;;15.59;94.20
35908;BME280;22003;50.320;8.054;2023-05-21T06:17:35;99568.44;;;16.00;91.51
35908;BME280;22003;50.320;8.054;2023-05-21T06:20:00;99564.94;;;15.73;91.70
35908;BME280;22003;50.320;8.054;2023-05-21T06:22:26;99554.56;;;15.70;92.85
35908;BME280;22003;50.320;8.054;2023-05-21T06:24:51;99554.34;;;15.46;94.37
35908;BME280;22003;50.320;8.054;2023-05-21T06:27:16;99565.19;;;15.26;93.50
35908;BME280;22003;50.320;8.054;2023-05-21T06:29:41;99555.16;;;15.02;94.92
35908;BME280;22003;50.320;8.054;2023-05-21T06:32:07;99559.25;;;15.15;94.38
35908;BME280;22003;50.320;8.054;2023-05-21T06:34:32;99564.31;;;15.62;92.77
35908;BME280;22003;50.320;8.054;2023-05-21T06:36:58;99553.09;;;15.58;93.24
35908;BME280;22003;50.320;8.054;2023-05-21T06:39:23;99563.50;;;15.43;92.26
35908;BME280;22003;50.320;8.054;2023-05-21T06:41:48;99561.69;;;15.44;93.45
35908;BME280;22003;50.320;8.054;2023-05-21T06:44:14;99559.25;;;15.76;94.56
35908;BME280;22003;50.320;8.054;2023-05-21T06:46:40;99564.72;;;15.67;93.42
35908;BME280;22003;50.320;8.054;2023-05-21T06:49:06;99565.72;;;15.48;96.24
35908;BME280;22003;50.320;8.054;2023-05-21T06:51:31;99560.63;;;15.37;96.16
35908;BME280;22003;50.320;8.054;2023-05-21T06:53:57;99556.53;;;15.24;95.44
35908;BME280;22003;50.320;8.054;2023-05-21T06:56:22;99555.03;;;15.48;96.21
35908;BME280;22003;50.320;8.054;2023-05-21T06:58:47;99565.41;;;15.51;94.82
35908;BME280;22003;50.320;8.054;2023-05-21T07:01:13;99561.06;;;15.50;94.77
35908;BME280;22003;50.320;8.054;2023-05-21T07:03:38;99547.72;;;15.50;96.55
35908;BME280;22003;50.320;8.054;2023-05-21T07:06:03;99541.69;;;15.48;96.37
35908;BME280;22003;50.320;8.054;2023-05-21T07:08:28;99546.88;;;15.67;95.38
35908;BME280;22003;50.320;8.054;2023-05-21T07:10:54;99557.56;;;15.67;96.43
35908;BME280;22003;50.320;8.054;2023-05-21T07:13:20;99561.06;;;15.68;96.35
35908;BME280;22003;50.320;8.054;2023-05-21T07:15:45;99557.06;;;15.98;94.81
35908;BME280;22003;50.320;8.054;2023-05-21T07:18:11;99533.09;;;15.80;95.35
35908;BME280;22003;50.320;8.054;2023-05-21T07:20:37;99562.94;;;15.75;94.71
35908;BME280;22003;50.320;8.054;2023-05-21T07:23:02;99559.38;;;16.27;92.93
35908;BME280;22003;50.320;8.054;2023-05-21T07:25:27;99556.19;;;16.23;94.08
35908;BME280;22003;50.320;8.054;2023-05-21T07:27:52;99552.69;;;16.31;93.05
35908;BME280;22003;50.320;8.054;2023-05-21T07:30:18;99556.53;;;16.28;93.70
35908;BME280;22003;50.320;8.054;2023-05-21T07:32:43;99547.72;;;16.36;91.72
35908;BME280;22003;50.320;8.054;2023-05-21T07:35:09;99542.06;;;17.22;89.30
35908;BME280;22003;50.320;8.054;2023-05-21T07:37:34;99547.06;;;17.41;88.37
35908;BME280;22003;50.320;8.054;2023-05-21T07:40:00;99553.25;;;17.01;88.62
35908;BME280;22003;50.320;8.054;2023-05-21T07:42:25;99559.13;;;17.78;86.90
35908;BME280;22003;50.320;8.054;2023-05-21T07:44:50;99553.09;;;17.19;89.31
35908;BME280;22003;50.320;8.054;2023-05-21T07:47:16;99542.69;;;17.81;86.70
35908;BME280;22003;50.320;8.054;2023-05-21T07:49:41;99543.22;;;18.32;85.46
35908;BME280;22003;50.320;8.054;2023-05-21T07:52:06;99525.09;;;18.26;83.20
35908;BME280;22003;50.320;8.054;2023-05-21T07:54:32;99548.31;;;18.03;85.23
35908;BME280;22003;50.320;8.054;2023-05-21T07:56:57;99528.16;;;18.15;85.01
35908;BME280;22003;50.320;8.054;2023-05-21T07:59:23;99540.75;;;18.85;83.58
35908;BME280;22003;50.320;8.054;2023-05-21T08:01:49;99549.88;;;17.89;86.24
35908;BME280;22003;50.320;8.054;2023-05-21T08:04:14;99547.22;;;17.81;86.40
35908;BME280;22003;50.320;8.054;2023-05-21T08:06:39;99520.75;;;18.25;85.31
35908;BME280;22003;50.320;8.054;2023-05-21T08:09:04;99542.59;;;18.14;84.04
35908;BME280;22003;50.320;8.054;2023-05-21T08:11:30;99528.13;;;19.16;80.89
35908;BME280;22003;50.320;8.054;2023-05-21T08:13:56;99533.88;;;18.51;83.65
35908;BME280;22003;50.320;8.054;2023-05-21T08:16:22;99516.84;;;18.75;82.45
35908;BME280;22003;50.320;8.054;2023-05-21T08:18:47;99519.84;;;18.41;83.40
35908;BME280;22003;50.320;8.054;2023-05-21T08:21:13;99515.28;;;18.50;84.05
35908;BME280;22003;50.320;8.054;2023-05-21T08:23:38;99539.56;;;18.87;86.12
35908;BME280;22003;50.320;8.054;2023-05-21T08:26:03;99523.66;;;18.55;84.22
35908;BME280;22003;50.320;8.054;2023-05-21T08:28:29;99530.31;;;19.13;82.23
35908;BME280;22003;50.320;8.054;2023-05-21T08:30:54;99535.34;;;18.62;82.41
35908;BME280;22003;50.320;8.054;2023-05-21T08:33:20;99531.47;;;18.95;82.68
35908;BME280;22003;50.320;8.054;2023-05-21T08:35:45;99529.91;;;19.24;81.50
35908;BME280;22003;50.320;8.054;2023-05-21T08:38:10;99530.16;;;18.91;82.52
35908;BME280;22003;50.320;8.054;2023-05-21T08:40:36;99536.78;;;19.41;81.87
35908;BME280;22003;50.320;8.054;2023-05-21T08:43:01;99518.84;;;19.94;78.36
35908;BME280;22003;50.320;8.054;2023-05-21T08:45:32;99521.41;;;19.73;82.77
35908;BME280;22003;50.320;8.054;2023-05-21T08:48:01;99515.28;;;20.23;78.85
35908;BME280;22003;50.320;8.054;2023-05-21T08:50:27;99531.53;;;19.48;79.53
35908;BME280;22003;50.320;8.054;2023-05-21T08:52:53;99509.69;;;18.90;82.03
35908;BME280;22003;50.320;8.054;2023-05-21T08:55:19;99530.19;;;19.29;85.04
35908;BME280;22003;50.320;8.054;2023-05-21T08:57:46;99516.50;;;19.62;83.20
35908;BME280;22003;50.320;8.054;2023-05-21T09:00:12;99512.22;;;19.82;82.18
35908;BME280;22003;50.320;8.054;2023-05-21T09:02:38;99521.34;;;19.58;86.26
35908;BME280;22003;50.320;8.054;2023-05-21T09:05:08;99509.53;;;19.30;83.14
35908;BME280;22003;50.320;8.054;2023-05-21T09:07:41;99507.38;;;19.25;85.35
35908;BME280;22003;50.320;8.054;2023-05-21T09:10:12;99503.91;;;19.54;81.60
35908;BME280;22003;50.320;8.054;2023-05-21T09:12:37;99502.88;;;20.22;83.21
35908;BME280;22003;50.320;8.054;2023-05-21T09:15:03;99503.09;;;20.57;81.11
35908;BME280;22003;50.320;8.054;2023-05-21T09:17:29;99509.22;;;20.66;82.27
35908;BME280;22003;50.320;8.054;2023-05-21T09:22:47;99504.31;;;20.40;79.95
35908;BME280;22003;50.320;8.054;2023-05-21T09:25:15;99502.94;;;20.29;82.36
35908;BME280;22003;50.320;8.054;2023-05-21T09:27:40;99497.97;;;20.11;83.31
35908;BME280;22003;50.320;8.054;2023-05-21T09:30:13;99494.16;;;19.76;82.31
35908;BME280;22003;50.320;8.054;2023-05-21T09:32:39;99499.50;;;20.50;79.74
35908;BME280;22003;50.320;8.054;2023-05-21T09:35:06;99510.53;;;20.40;81.29
35908;BME280;22003;50.320;8.054;2023-05-21T09:37:39;99481.91;;;20.03;80.81
35908;BME280;22003;50.320;8.054;2023-05-21T09:40:18;99499.97;;;20.24;81.55
35908;BME280;22003;50.320;8.054;2023-05-21T09:42:46;99495.19;;;20.04;80.22
35908;BME280;22003;50.320;8.054;2023-05-21T09:45:11;99482.78;;;20.40;80.37
35908;BME280;22003;50.320;8.054;2023-05-21T09:47:44;99483.81;;;20.75;78.27
35908;BME280;22003;50.320;8.054;2023-05-21T09:50:11;99493.78;;;20.60;80.16
35908;BME280;22003;50.320;8.054;2023-05-21T09:52:37;99482.16;;;20.74;79.73
35908;BME280;22003;50.320;8.054;2023-05-21T09:55:04;99477.53;;;21.11;78.56
35908;BME280;22003;50.320;8.054;2023-05-21T09:57:30;99479.06;;;20.98;77.60
35908;BME280;22003;50.320;8.054;2023-05-21T09:59:55;99485.06;;;20.94;78.57
35908;BME280;22003;50.320;8.054;2023-05-21T10:02:22;99477.09;;;20.86;73.93
35908;BME280;22003;50.320;8.054;2023-05-21T10:04:49;99474.06;;;21.38;73.46
35908;BME280;22003;50.320;8.054;2023-05-21T10:07:17;99482.25;;;21.08;75.91
35908;BME280;22003;50.320;8.054;2023-05-21T10:09:46;99462.78;;;21.06;78.38
35908;BME280;22003;50.320;8.054;2023-05-21T10:12:12;99477.44;;;21.81;77.42
35908;BME280;22003;50.320;8.054;2023-05-21T10:14:39;99473.16;;;21.31;78.22
35908;BME280;22003;50.320;8.054;2023-05-21T10:17:05;99463.88;;;21.12;74.71
35908;BME280;22003;50.320;8.054;2023-05-21T10:19:32;99467.97;;;21.29;77.32
35908;BME280;22003;50.320;8.054;2023-05-21T10:21:59;99436.38;;;20.74;73.30
35908;BME280;22003;50.320;8.054;2023-05-21T10:24:26;99455.00;;;21.40;78.03
35908;BME280;22003;50.320;8.054;2023-05-21T10:26:51;99437.28;;;21.30;76.14
35908;BME280;22003;50.320;8.054;2023-05-21T10:29:18;99442.19;;;21.48;75.22
35908;BME280;22003;50.320;8.054;2023-05-21T10:31:43;99436.63;;;21.50;76.96
35908;BME280;22003;50.320;8.054;2023-05-21T10:34:13;99437.44;;;21.22;74.13
35908;BME280;22003;50.320;8.054;2023-05-21T10:36:39;99449.34;;;21.63;77.60
35908;BME280;22003;50.320;8.054;2023-05-21T10:39:05;99455.06;;;21.53;74.95
35908;BME280;22003;50.320;8.054;2023-05-21T10:41:38;99448.59;;;21.47;71.68
35908;BME280;22003;50.320;8.054;2023-05-21T10:44:15;99456.84;;;21.39;74.16
35908;BME280;22003;50.320;8.054;2023-05-21T10:47:27;99451.94;;;21.21;75.32
35908;BME280;22003;50.320;8.054;2023-05-21T10:55:35;99405.03;;;20.88;75.96
35908;BME280;22003;50.320;8.054;2023-05-21T10:58:26;99457.41;;;21.06;78.65
35908;BME280;22003;50.320;8.054;2023-05-21T11:00:56;99429.59;;;20.78;76.58
35908;BME280;22003;50.320;8.054;2023-05-21T11:03:23;99440.25;;;21.14;76.51
35908;BME280;22003;50.320;8.054;2023-05-21T11:05:54;99447.41;;;21.28;77.71
35908;BME280;22003;50.320;8.054;2023-05-21T11:08:20;99447.97;;;21.45;78.37
35908;BME280;22003;50.320;8.054;2023-05-21T11:10:50;99438.56;;;21.63;76.41
35908;BME280;22003;50.320;8.054;2023-05-21T11:13:16;99434.59;;;21.65;74.59
35908;BME280;22003;50.320;8.054;2023-05-21T11:21:07;99429.13;;;21.45;75.98
35908;BME280;22003;50.320;8.054;2023-05-21T11:26:22;99423.38;;;21.27;76.46
35908;BME280;22003;50.320;8.054;2023-05-21T11:29:09;99428.00;;;21.33;75.54
35908;BME280;22003;50.320;8.054;2023-05-21T11:31:35;99428.47;;;21.78;79.10
35908;BME280;22003;50.320;8.054;2023-05-21T11:36:39;99425.63;;;22.40;76.75
35908;BME280;22003;50.320;8.054;2023-05-21T11:39:12;99411.69;;;22.30;72.56
35908;BME280;22003;50.320;8.054;2023-05-21T11:41:50;99405.22;;;22.25;72.56
35908;BME280;22003;50.320;8.054;2023-05-21T11:44:15;99402.41;;;22.86;71.58
35908;BME280;22003;50.320;8.054;2023-05-21T11:46:41;99384.31;;;22.53;72.10
35908;BME280;22003;50.320;8.054;2023-05-21T11:49:08;99391.25;;;22.89;72.45
35908;BME280;22003;50.320;8.054;2023-05-21T11:51:34;99392.25;;;22.75;70.48
35908;BME280;22003;50.320;8.054;2023-05-21T11:53:59;99384.38;;;23.00;73.74
35908;BME280;22003;50.320;8.054;2023-05-21T11:56:25;99408.69;;;23.00;72.70
35908;BME280;22003;50.320;8.054;2023-05-21T11:58:54;99399.94;;;23.31;75.30
35908;BME280;22003;50.320;8.054;2023-05-21T12:01:25;99409.09;;;23.23;72.90
35908;BME280;22003;50.320;8.054;2023-05-21T12:03:51;99388.53;;;23.09;69.18
35908;BME280;22003;50.320;8.054;2023-05-21T12:06:16;99391.84;;;22.84;71.19
35908;BME280;22003;50.320;8.054;2023-05-21T12:08:42;99399.59;;;23.85;73.41
35908;BME280;22003;50.320;8.054;2023-05-21T12:11:07;99402.63;;;23.31;69.62
35908;BME280;22003;50.320;8.054;2023-05-21T12:13:33;99374.38;;;23.20;68.31
35908;BME280;22003;50.320;8.054;2023-05-21T12:15:58;99383.69;;;23.44;73.42
35908;BME280;22003;50.320;8.054;2023-05-21T12:18:24;99368.19;;;23.00;69.98
35908;BME280;22003;50.320;8.054;2023-05-21T12:20:52;99375.63;;;23.17;69.80
35908;BME280;22003;50.320;8.054;2023-05-21T12:23:19;99410.50;;;23.65;69.33
35908;BME280;22003;50.320;8.054;2023-05-21T12:25:45;99397.16;;;23.70;67.96
35908;BME280;22003;50.320;8.054;2023-05-21T12:28:10;99397.78;;;23.59;70.14
35908;BME280;22003;50.320;8.054;2023-05-21T12:30:36;99397.00;;;23.65;68.35
35908;BME280;22003;50.320;8.054;2023-05-21T12:33:01;99398.66;;;23.47;68.76
35908;BME280;22003;50.320;8.054;2023-05-21T12:35:29;99403.41;;;23.71;72.97
35908;BME280;22003;50.320;8.054;2023-05-21T12:37:54;99400.53;;;23.66;71.69
35908;BME280;22003;50.320;8.054;2023-05-21T12:40:20;99398.06;;;23.25;73.11
35908;BME280;22003;50.320;8.054;2023-05-21T12:42:46;99399.53;;;22.87;72.26
35908;BME280;22003;50.320;8.054;2023-05-21T12:45:11;99399.75;;;23.12;72.66
35908;BME280;22003;50.320;8.054;2023-05-21T12:47:37;99389.16;;;23.04;71.44
35908;BME280;22003;50.320;8.054;2023-05-21T12:50:07;99399.09;;;23.30;74.30
35908;BME280;22003;50.320;8.054;2023-05-21T12:52:33;99385.81;;;23.02;72.62
35908;BME280;22003;50.320;8.054;2023-05-21T12:54:58;99392.44;;;22.80;72.66
35908;BME280;22003;50.320;8.054;2023-05-21T12:57:26;99395.56;;;22.83;73.21
35908;BME280;22003;50.320;8.054;2023-05-21T12:59:59;99389.13;;;23.31;73.07
35908;BME280;22003;50.320;8.054;2023-05-21T13:02:32;99398.03;;;23.44;77.69
35908;BME280;22003;50.320;8.054;2023-05-21T13:04:59;99386.84;;;23.28;72.96
35908;BME280;22003;50.320;8.054;2023-05-21T13:07:26;99383.06;;;23.49;70.60
35908;BME280;22003;50.320;8.054;2023-05-21T13:09:52;99380.09;;;23.70;72.27
35908;BME280;22003;50.320;8.054;2023-05-21T13:12:19;99383.41;;;23.79;69.40
35908;BME280;22003;50.320;8.054;2023-05-21T13:14:45;99364.44;;;23.85;68.64
35908;BME280;22003;50.320;8.054;2023-05-21T13:17:10;99370.88;;;23.91;72.78
35908;BME280;22003;50.320;8.054;2023-05-21T13:19:35;99341.28;;;23.38;69.87
35908;BME280;22003;50.320;8.054;2023-05-21T13:22:01;99361.69;;;23.92;71.04
35908;BME280;22003;50.320;8.054;2023-05-21T13:24:27;99367.94;;;24.31;70.37
35908;BME280;22003;50.320;8.054;2023-05-21T13:26:52;99361.19;;;24.78;69.08
35908;BME280;22003;50.320;8.054;2023-05-21T13:29:17;99354.38;;;24.44;68.59
35908;BME280;22003;50.320;8.054;2023-05-21T13:31:43;99354.19;;;24.64;69.88
35908;BME280;22003;50.320;8.054;2023-05-21T13:34:11;99328.19;;;25.49;65.50
35908;BME280;22003;50.320;8.054;2023-05-21T13:36:37;99334.09;;;25.95;65.19
35908;BME280;22003;50.320;8.054;2023-05-21T13:39:03;99347.34;;;26.03;61.01
35908;BME280;22003;50.320;8.054;2023-05-21T13:41:28;99361.38;;;26.00;64.07
35908;BME280;22003;50.320;8.054;2023-05-21T13:43:53;99356.06;;;25.38;65.84
35908;BME280;22003;50.320;8.054;2023-05-21T13:46:19;99356.47;;;24.92;64.80
35908;BME280;22003;50.320;8.054;2023-05-21T13:48:44;99345.13;;;25.45;60.64
35908;BME280;22003;50.320;8.054;2023-05-21T13:51:09;99342.09;;;25.53;61.53
35908;BME280;22003;50.320;8.054;2023-05-21T13:53:34;99328.38;;;25.48;60.57
35908;BME280;22003;50.320;8.054;2023-05-21T13:56:00;99345.88;;;25.89;60.67
35908;BME280;22003;50.320;8.054;2023-05-21T13:58:25;99316.63;;;25.54;58.89
35908;BME280;22003;50.320;8.054;2023-05-21T14:00:52;99330.19;;;25.54;58.52
35908;BME280;22003;50.320;8.054;2023-05-21T14:03:17;99333.16;;;26.84;57.39
35908;BME280;22003;50.320;8.054;2023-05-21T14:05:42;99329.78;;;27.13;54.34
35908;BME280;22003;50.320;8.054;2023-05-21T14:08:08;99309.03;;;25.63;61.56
35908;BME280;22003;50.320;8.054;2023-05-21T14:10:33;99327.94;;;26.18;53.80
35908;BME280;22003;50.320;8.054;2023-05-21T14:12:58;99319.28;;;25.42;58.03
35908;BME280;22003;50.320;8.054;2023-05-21T14:15:23;99341.94;;;25.30;60.78
35908;BME280;22003;50.320;8.054;2023-05-21T14:17:49;99336.25;;;25.56;60.11
35908;BME280;22003;50.320;8.054;2023-05-21T14:20:16;99333.81;;;26.45;60.30
35908;BME280;22003;50.320;8.054;2023-05-21T14:22:41;99330.81;;;25.56;60.27
35908;BME280;22003;50.320;8.054;2023-05-21T14:25:07;99324.25;;;26.12;56.42
35908;BME280;22003;50.320;8.054;2023-05-21T14:27:32;99332.97;;;26.14;59.02
35908;BME280;22003;50.320;8.054;2023-05-21T14:29:57;99312.84;;;25.73;56.45
35908;BME280;22003;50.320;8.054;2023-05-21T14:32:22;99334.31;;;24.77;58.31
35908;BME280;22003;50.320;8.054;2023-05-21T14:34:48;99315.31;;;24.20;64.42
35908;BME280;22003;50.320;8.054;2023-05-21T14:37:13;99326.00;;;23.77;67.21
35908;BME280;22003;50.320;8.054;2023-05-21T14:39:38;99336.59;;;23.78;66.43
35908;BME280;22003;50.320;8.054;2023-05-21T14:42:04;99339.34;;;23.65;69.66
35908;BME280;22003;50.320;8.054;2023-05-21T14:44:29;99317.94;;;23.63;69.27
35908;BME280;22003;50.320;8.054;2023-05-21T14:46:55;99340.91;;;23.86;70.39
35908;BME280;22003;50.320;8.054;2023-05-21T14:49:20;99317.47;;;23.73;70.66
35908;BME280;22003;50.320;8.054;2023-05-21T14:51:45;99336.66;;;24.10;69.50
35908;BME280;22003;50.320;8.054;2023-05-21T14:54:11;99337.38;;;24.23;67.75
35908;BME280;22003;50.320;8.054;2023-05-21T14:56:37;99335.28;;;24.26;66.51
35908;BME280;22003;50.320;8.054;2023-05-21T14:59:02;99331.91;;;23.98;66.97
35908;BME280;22003;50.320;8.054;2023-05-21T15:01:27;99320.63;;;23.63;69.53
35908;BME280;22003;50.320;8.054;2023-05-21T15:03:52;99332.72;;;23.54;70.54
35908;BME280;22003;50.320;8.054;2023-05-21T15:06:19;99339.41;;;23.45;71.17
35908;BME280;22003;50.320;8.054;2023-05-21T15:08:45;99335.25;;;23.36;70.75
35908;BME280;22003;50.320;8.054;2023-05-21T15:11:10;99315.97;;;23.19;70.84
35908;BME280;22003;50.320;8.054;2023-05-21T15:13:35;99331.34;;;23.18;69.96
35908;BME280;22003;50.320;8.054;2023-05-21T15:16:01;99328.25;;;23.08;68.11
35908;BME280;22003;50.320;8.054;2023-05-21T15:18:26;99311.03;;;22.83;71.15
35908;BME280;22003;50.320;8.054;2023-05-21T15:20:51;99337.44;;;22.94;68.86
35908;BME280;22003;50.320;8.054;2023-05-21T15:23:16;99285.69;;;22.64;69.16
35908;BME280;22003;50.320;8.054;2023-05-21T15:25:42;99301.69;;;22.72;70.73
35908;BME280;22003;50.320;8.054;2023-05-21T15:28:07;99337.81;;;22.98;70.44
35908;BME280;22003;50.320;8.054;2023-05-21T15:30:32;99326.59;;;23.01;70.38
35908;BME280;22003;50.320;8.054;2023-05-21T15:32:58;99335.31;;;23.16;71.51
35908;BME280;22003;50.320;8.054;2023-05-21T15:35:23;99331.34;;;23.18;70.06
35908;BME280;22003;50.320;8.054;2023-05-21T15:37:48;99322.84;;;23.22;71.30
35908;BME280;22003;50.320;8.054;2023-05-21T15:40:13;99335.31;;;23.16;72.72
35908;BME280;22003;50.320;8.054;2023-05-21T15:42:39;99324.72;;;23.08;72.53
35908;BME280;22003;50.320;8.054;2023-05-21T15:45:04;99325.34;;;23.03;73.35
35908;BME280;22003;50.320;8.054;2023-05-21T15:47:30;99305.63;;;22.96;73.85
35908;BME280;22003;50.320;8.054;2023-05-21T15:49:56;99313.94;;;22.95;73.57
35908;BME280;22003;50.320;8.054;2023-05-21T15:52:22;99316.63;;;23.01;73.93
35908;BME280;22003;50.320;8.054;2023-05-21T15:54:47;99316.44;;;22.96;74.62
35908;BME280;22003;50.320;8.054;2023-05-21T15:57:13;99290.47;;;22.88;74.21
35908;BME280;22003;50.320;8.054;2023-05-21T15:59:38;99316.19;;;23.17;73.78
35908;BME280;22003;50.320;8.054;2023-05-21T16:02:03;99269.03;;;22.80;71.87
35908;BME280;22003;50.320;8.054;2023-05-21T16:04:28;99314.09;;;23.13;73.59
35908;BME280;22003;50.320;8.054;2023-05-21T16:06:56;99286.50;;;23.04;71.82
35908;BME280;22003;50.320;8.054;2023-05-21T16:09:22;99306.63;;;23.08;73.58
35908;BME280;22003;50.320;8.054;2023-05-21T16:11:47;99317.16;;;23.36;73.38
35908;BME280;22003;50.320;8.054;2023-05-21T16:14:12;99316.59;;;23.79;73.65
35908;BME280;22003;50.320;8.054;2023-05-21T16:16:38;99262.75;;;23.78;70.26
35908;BME280;22003;50.320;8.054;2023-05-21T16:19:03;99309.09;;;24.51;69.75
35908;BME280;22003;50.320;8.054;2023-05-21T16:21:28;99314.97;;;24.73;70.40
35908;BME280;22003;50.320;8.054;2023-05-21T16:23:54;99302.59;;;25.02;68.83
35908;BME280;22003;50.320;8.054;2023-05-21T16:26:19;99303.53;;;25.14;66.02
35908;BME280;22003;50.320;8.054;2023-05-21T16:28:45;99308.00;;;25.45;66.24
35908;BME280;22003;50.320;8.054;2023-05-21T16:31:11;99261.16;;;25.38;64.30
35908;BME280;22003;50.320;8.054;2023-05-21T16:33:36;99264.91;;;25.19;65.31
35908;BME280;22003;50.320;8.054;2023-05-21T16:36:02;99301.81;;;25.38;67.55
35908;BME280;22003;50.320;8.054;2023-05-21T16:38:27;99300.84;;;25.33;66.00
35908;BME280;22003;50.320;8.054;2023-05-21T16:40:52;99298.13;;;25.33;66.36
35908;BME280;22003;50.320;8.054;2023-05-21T16:43:17;99296.53;;;25.25;66.30
35908;BME280;22003;50.320;8.054;2023-05-21T16:45:44;99309.34;;;25.36;67.30
35908;BME280;22003;50.320;8.054;2023-05-21T16:48:10;99297.13;;;25.09;67.70
35908;BME280;22003;50.320;8.054;2023-05-21T16:50:36;99309.88;;;25.01;69.48
35908;BME280;22003;50.320;8.054;2023-05-21T16:53:02;99281.53;;;24.61;66.35
35908;BME280;22003;50.320;8.054;2023-05-21T16:55:29;99315.13;;;24.53;68.92
35908;BME280;22003;50.320;8.054;2023-05-21T16:57:54;99305.31;;;24.27;70.30
35908;BME280;22003;50.320;8.054;2023-05-21T17:00:20;99310.78;;;24.14;71.35
35908;BME280;22003;50.320;8.054;2023-05-21T17:02:45;99299.09;;;23.88;70.15
35908;BME280;22003;50.320;8.054;2023-05-21T17:05:10;99307.31;;;23.62;71.24
35908;BME280;22003;50.320;8.054;2023-05-21T17:07:35;99288.94;;;23.19;72.97
35908;BME280;22003;50.320;8.054;2023-05-21T17:10:02;99279.63;;;23.02;71.67
35908;BME280;22003;50.320;8.054;2023-05-21T17:12:27;99309.97;;;23.10;73.00